Hovedside
METAR-TAF:

METAR-TAF

Lufthavner :

Loreto, Mexico

breddegrad: 26-01N, lengdegrad: 111-21W, høyde over havet: 15 m

Gjeldene værobservasjon

Denne rapporten ble laget for 1 time og 42 minutter siden, klokken 01:49 UTC
Flau vind
Temperatur 32°C
Luftfuktighet 52%
Trykk 1002 hPa
Sikt: 16.1 km
Skyfri himmel

METAR: MMLT 200149Z 00000KT 10SM SKC 32/21 A2960 RMK HZY

Tid: 21:31 (03:31 UTC)

Varsel

Denne rapporten ble laget for 10 timer og 18 minutter siden, klokken 17:13 UTC
Varsel gyldig fra 19. klokken 18 UTC til 20. klokken 18 UTC
Vind 10 kt fra Øst
Sikt: 10 km
Skyfri himmel
Fra 20. klokken 0300 UTC
Vind 5 kt fra Øst-nordøst
Sikt: 9.7 km
Skyfri himmel
dis
Fra 20. klokken 1800 UTC
Vind 10 kt fra Sør-sørøst
Sikt: 10 km
Skyfri himmel

TAF: MMLT 191713Z 1918/2018 08010KT P6SM SKC FM200300 06005KT 6SM HZ SKC FM201800 16010KT P6SM SKC

Værobservasjoner og værvarsel for over 4000 flyplasser (METAR- og TAF-rapporter).

Tilgjengelige stasjoner er representert av de røde og gule prikkene på kartet.

Hold musepekeren over prikken for å se navnet på stasjonen.

Klikk så for å se værobservasjoner og -varsler.

For å forandre kartet kan du klikke på den grønne knappen med svart kryss for å zoome inn, på den grønne knappen med strek for å zoome ut, eller på de grønne pilene for å se tilstøtende kart.


METAR-TAF: